LIPE/BLQ METAR and TAF weather

Enter ICAO airport designator
Station Type Date Time Source
LIPE METAR 2019/11/18 11:50 UTC NOAA

LIPE 181150Z 28004KT 240V320 9999 FEW045 10/07 Q1013


Station Type Date Time Source
LIPE Decoded METAR 2019/11/18 11:50 UTC NOAA

Bologna / Borgo Panigale, Italy (LIPE) 44-32N 011-18E 49M
Nov 18, 2019 - 06:50 AM EST / 2019.11.18 1150 UTC
Wind: from the W (280 degrees) at 5 MPH (4 KT) (direction variable):0
Visibility: greater than 7 mile(s):0
Sky conditions: mostly clear
Temperature: 50 F (10 C)
Dew Point: 44 F (7 C)
Relative Humidity: 81%
Pressure (altimeter): 29.91 in. Hg (1013 hPa)
ob: LIPE 181150Z 28004KT 240V320 9999 FEW045 10/07 Q1013
cycle: 12

Station Type Date Time Source
LIPE TAF 2019/11/18 12:21 UTC NOAA

TAF LIPE 181100Z 1812/1912 10008KT 9999 SCT020
TEMPO 1815/1912 3000 RA BKN012

Example: see airport list